createdAt,value
2022-08-17T00:00:43.601Z,14.40
2022-08-17T00:03:22.945Z,14.40
2022-08-17T00:05:58.509Z,14.41
2022-08-17T00:08:34.477Z,14.38
2022-08-17T00:11:07.997Z,14.35
2022-08-17T00:13:43.725Z,14.31
2022-08-17T00:16:18.772Z,14.29
2022-08-17T00:18:53.788Z,14.28
2022-08-17T00:22:30.877Z,14.25
2022-08-17T00:24:33.081Z,14.23
2022-08-17T00:27:02.567Z,14.24
2022-08-17T00:29:32.066Z,14.24
2022-08-17T00:33:22.894Z,14.20
2022-08-17T00:34:52.933Z,14.19
2022-08-17T00:37:22.477Z,14.13
2022-08-17T00:39:53.344Z,14.07
2022-08-17T00:42:24.488Z,14.03
2022-08-17T00:44:55.722Z,13.97
2022-08-17T00:47:25.239Z,13.96
2022-08-17T00:49:55.014Z,13.93
2022-08-17T00:52:39.075Z,13.91
2022-08-17T00:55:16.834Z,13.89
2022-08-17T00:57:55.396Z,13.87
2022-08-17T01:00:30.693Z,13.84
2022-08-17T01:03:07.488Z,13.82
2022-08-17T01:05:42.180Z,13.79
2022-08-17T01:08:19.614Z,13.78
2022-08-17T01:11:00.380Z,13.76
2022-08-17T01:13:41.019Z,13.70
2022-08-17T01:16:20.177Z,13.68
2022-08-17T01:18:55.461Z,13.66
2022-08-17T01:21:37.346Z,13.64
2022-08-17T01:24:09.445Z,13.62
2022-08-17T01:26:40.927Z,13.62
2022-08-17T01:29:10.808Z,13.62
2022-08-17T01:31:49.816Z,13.60
2022-08-17T01:34:20.165Z,13.59
2022-08-17T01:36:51.482Z,13.55
2022-08-17T01:39:36.331Z,13.57
2022-08-17T01:42:12.500Z,13.51
2022-08-17T01:44:43.514Z,13.49
2022-08-17T01:47:13.148Z,13.47
2022-08-17T01:49:42.709Z,13.43
2022-08-17T01:52:13.802Z,13.38
2022-08-17T01:54:49.029Z,13.34
2022-08-17T01:57:18.564Z,13.34
2022-08-17T01:59:48.256Z,13.31
2022-08-17T02:02:30.557Z,13.30
2022-08-17T02:05:01.852Z,13.29
2022-08-17T02:07:31.393Z,13.29
2022-08-17T02:10:02.273Z,13.30
2022-08-17T02:12:38.225Z,13.29
2022-08-17T02:15:15.097Z,13.28
2022-08-17T02:17:45.994Z,13.23
2022-08-17T02:20:16.270Z,13.20
2022-08-17T02:23:09.300Z,13.18
2022-08-17T02:25:42.060Z,13.17
2022-08-17T02:28:12.336Z,13.17
2022-08-17T02:30:59.531Z,13.17
2022-08-17T02:33:42.816Z,13.18
2022-08-17T02:36:14.514Z,13.20
2022-08-17T02:38:44.703Z,13.22
2022-08-17T02:41:15.632Z,13.22
2022-08-17T02:43:45.257Z,13.21
2022-08-17T02:46:14.770Z,13.23
2022-08-17T02:48:44.386Z,13.19
2022-08-17T02:51:13.935Z,13.15
2022-08-17T02:53:43.586Z,13.11
2022-08-17T02:56:14.454Z,13.07
2022-08-17T02:58:43.929Z,13.05
2022-08-17T03:01:13.732Z,13.02
2022-08-17T03:03:43.606Z,12.97
2022-08-17T03:06:13.218Z,12.94
2022-08-17T03:08:42.724Z,12.93
2022-08-17T03:11:12.214Z,12.88
2022-08-17T03:13:43.132Z,12.85
2022-08-17T03:16:12.838Z,12.81
2022-08-17T03:18:42.376Z,12.80
2022-08-17T03:21:11.837Z,12.79
2022-08-17T03:23:42.204Z,12.77
2022-08-17T03:26:15.518Z,12.77
2022-08-17T03:28:47.223Z,12.75
2022-08-17T03:31:18.321Z,12.78
2022-08-17T03:33:47.905Z,12.76
2022-08-17T03:36:17.527Z,12.73
2022-08-17T03:38:46.997Z,12.72
2022-08-17T03:41:16.553Z,12.72
2022-08-17T03:43:47.417Z,12.71
2022-08-17T03:46:35.658Z,12.69
2022-08-17T03:49:25.565Z,12.64
2022-08-17T03:52:24.448Z,12.59
2022-08-17T03:55:11.444Z,12.54
2022-08-17T03:57:41.094Z,12.52
2022-08-17T04:00:14.550Z,12.49
2022-08-17T04:02:44.595Z,12.49
2022-08-17T04:05:14.954Z,12.49
2022-08-17T04:07:45.101Z,12.49
2022-08-17T04:10:15.016Z,12.50
2022-08-17T04:12:50.068Z,12.52
2022-08-17T04:15:21.351Z,12.50
2022-08-17T04:17:50.857Z,12.50
2022-08-17T04:20:24.396Z,12.53
2022-08-17T04:23:02.055Z,12.55
2022-08-17T04:25:36.329Z,12.60
2022-08-17T04:28:07.638Z,12.61
2022-08-17T04:30:48.728Z,12.64
2022-08-17T04:33:21.791Z,12.65
2022-08-17T04:35:53.947Z,12.66
2022-08-17T04:38:27.042Z,12.68
2022-08-17T04:41:15.504Z,12.71
2022-08-17T04:43:47.859Z,12.78
2022-08-17T04:46:22.760Z,12.79
2022-08-17T04:49:11.456Z,12.81
2022-08-17T04:51:54.463Z,12.86
2022-08-17T04:54:25.334Z,12.88
2022-08-17T04:56:55.008Z,12.94
2022-08-17T04:59:24.933Z,13.02
2022-08-17T05:01:55.878Z,13.04
2022-08-17T05:04:34.616Z,13.05
2022-08-17T05:07:05.251Z,13.09
2022-08-17T05:09:34.709Z,13.17
2022-08-17T05:12:05.960Z,13.27
2022-08-17T05:14:35.485Z,13.31
2022-08-17T05:17:10.867Z,13.38
2022-08-17T05:19:41.147Z,13.43
2022-08-17T05:22:10.654Z,13.50
2022-08-17T05:24:50.483Z,13.57
2022-08-17T05:27:23.656Z,13.65
2022-08-17T05:29:53.194Z,13.69
2022-08-17T05:32:37.275Z,13.77
2022-08-17T05:35:10.610Z,13.86
2022-08-17T05:37:40.088Z,13.94
2022-08-17T05:40:11.693Z,14.05
2022-08-17T05:42:41.376Z,14.15
2022-08-17T05:45:15.811Z,14.28
2022-08-17T05:47:48.329Z,14.42
2022-08-17T05:50:27.345Z,14.55
2022-08-17T05:53:11.301Z,14.67
2022-08-17T05:55:52.097Z,14.79
2022-08-17T05:58:33.825Z,14.90
2022-08-17T06:01:15.800Z,15.09
2022-08-17T06:04:02.118Z,15.24
2022-08-17T06:06:42.085Z,15.38
2022-08-17T06:09:33.835Z,15.50
2022-08-17T06:12:25.345Z,15.61
2022-08-17T06:15:24.615Z,15.73
2022-08-17T06:18:01.280Z,15.85
2022-08-17T06:20:47.338Z,15.97
2022-08-17T06:23:28.103Z,16.12
2022-08-17T06:26:06.999Z,16.24
2022-08-17T06:28:45.292Z,16.42
2022-08-17T06:31:33.504Z,16.59
2022-08-17T06:34:08.359Z,16.73
2022-08-17T06:36:57.252Z,16.89
2022-08-17T06:39:44.578Z,17.04
2022-08-17T06:42:54.688Z,17.19
2022-08-17T06:45:31.938Z,17.34
2022-08-17T06:48:11.741Z,17.51
2022-08-17T06:50:53.397Z,17.70
2022-08-17T06:53:29.597Z,17.88
2022-08-17T06:56:05.903Z,18.11
2022-08-17T06:58:37.340Z,18.34
2022-08-17T07:01:15.514Z,18.59
2022-08-17T07:03:56.005Z,18.74
2022-08-17T07:06:37.757Z,18.88
2022-08-17T07:09:18.096Z,19.08
2022-08-17T07:11:54.639Z,19.27
2022-08-17T07:14:37.625Z,19.42
2022-08-17T07:17:11.737Z,19.58
2022-08-17T07:19:44.359Z,19.72
2022-08-17T07:22:22.843Z,19.81
2022-08-17T07:24:58.388Z,19.94
2022-08-17T07:27:31.715Z,20.07
2022-08-17T07:30:11.103Z,20.22
2022-08-17T07:32:50.707Z,20.44
2022-08-17T07:35:23.572Z,20.59
2022-08-17T07:38:25.456Z,20.77
2022-08-17T07:41:07.497Z,20.89
2022-08-17T07:43:46.907Z,21.04
2022-08-17T07:46:39.545Z,21.17
2022-08-17T07:49:27.354Z,21.32
2022-08-17T07:52:24.815Z,21.49
2022-08-17T07:54:56.337Z,21.67
2022-08-17T07:57:36.862Z,21.79
2022-08-17T08:00:31.420Z,22.00
2022-08-17T08:03:16.548Z,22.11
2022-08-17T08:05:55.908Z,22.23
2022-08-17T08:08:34.188Z,22.41
2022-08-17T08:11:10.978Z,22.56
2022-08-17T08:13:45.518Z,22.68
2022-08-17T08:16:30.203Z,22.86
2022-08-17T08:19:02.695Z,23.05
2022-08-17T08:21:47.849Z,23.26
2022-08-17T08:24:47.570Z,23.42
2022-08-17T08:27:33.526Z,23.56
2022-08-17T08:30:11.695Z,23.71
2022-08-17T08:33:17.204Z,23.83
2022-08-17T08:35:53.986Z,23.97
2022-08-17T08:38:45.339Z,24.13
2022-08-17T08:41:34.031Z,24.28
2022-08-17T08:45:00.295Z,24.43
2022-08-17T08:47:46.444Z,24.62
2022-08-17T08:50:38.029Z,24.78
2022-08-17T08:53:28.929Z,24.97
2022-08-17T08:56:09.508Z,25.11
2022-08-17T08:58:50.497Z,25.29
2022-08-17T09:01:30.351Z,25.49
2022-08-17T09:05:02.738Z,25.55
2022-08-17T09:07:43.420Z,25.69
2022-08-17T09:10:25.392Z,25.84
2022-08-17T09:13:10.587Z,26.03
2022-08-17T09:15:46.319Z,26.17
2022-08-17T09:19:02.414Z,26.24
2022-08-17T09:21:25.053Z,26.46
2022-08-17T09:24:05.113Z,26.56
2022-08-17T09:26:48.810Z,26.75
2022-08-17T09:29:24.359Z,26.91
2022-08-17T09:31:58.449Z,27.11
2022-08-17T09:34:43.523Z,27.24
2022-08-17T09:37:26.330Z,27.38
2022-08-17T09:40:11.101Z,27.50
2022-08-17T09:42:50.111Z,27.60
2022-08-17T09:45:33.661Z,27.56
2022-08-17T09:48:14.287Z,27.67
2022-08-17T09:51:05.947Z,27.82
2022-08-17T09:53:40.663Z,27.96
2022-08-17T09:56:56.437Z,28.10
2022-08-17T09:59:56.248Z,28.33
2022-08-17T10:03:16.173Z,28.54
2022-08-17T10:05:56.565Z,28.70
2022-08-17T10:08:40.353Z,28.82
2022-08-17T10:11:48.165Z,28.82
2022-08-17T10:14:37.746Z,29.00
2022-08-17T10:17:24.782Z,28.94
2022-08-17T10:20:07.798Z,29.03
2022-08-17T10:23:15.004Z,28.98
2022-08-17T10:26:08.409Z,29.16
2022-08-17T10:28:48.193Z,29.22
2022-08-17T10:31:36.259Z,29.37
2022-08-17T10:34:43.871Z,29.66
2022-08-17T10:37:46.385Z,29.97
2022-08-17T10:40:26.511Z,30.14
2022-08-17T10:43:04.337Z,30.18
2022-08-17T10:45:47.691Z,30.12
2022-08-17T10:48:33.336Z,30.26
2022-08-17T10:51:10.278Z,30.32
2022-08-17T10:54:02.187Z,30.47
2022-08-17T10:56:51.369Z,30.58
2022-08-17T10:59:53.075Z,30.91
2022-08-17T11:02:34.999Z,31.13
2022-08-17T11:05:54.050Z,31.20
2022-08-17T11:09:28.861Z,30.96
2022-08-17T11:12:27.841Z,30.93
2022-08-17T11:15:21.943Z,30.94
2022-08-17T11:18:15.123Z,30.97
2022-08-17T11:21:40.218Z,30.94
2022-08-17T11:24:24.090Z,31.18
2022-08-17T11:27:13.488Z,31.47
2022-08-17T11:29:59.517Z,31.67
2022-08-17T11:32:48.097Z,31.91
2022-08-17T11:35:39.933Z,32.00
2022-08-17T11:38:25.281Z,32.06
2022-08-17T11:41:20.700Z,32.13
2022-08-17T11:44:48.060Z,32.16
2022-08-17T11:47:53.077Z,32.28
2022-08-17T11:51:06.345Z,32.21
2022-08-17T11:57:41.136Z,32.51
2022-08-17T12:00:56.706Z,32.94
2022-08-17T12:03:56.799Z,33.19
2022-08-17T12:06:48.282Z,33.29
2022-08-17T12:09:25.014Z,33.49
2022-08-17T12:12:13.242Z,33.58
2022-08-17T12:15:10.454Z,33.75
2022-08-17T12:17:42.931Z,33.82
2022-08-17T12:20:23.103Z,33.76
2022-08-17T12:23:06.936Z,33.71
2022-08-17T12:25:44.253Z,33.44
2022-08-17T12:28:27.886Z,33.37
2022-08-17T12:31:03.642Z,33.22
2022-08-17T12:33:33.332Z,32.84
2022-08-17T12:36:07.492Z,32.69
2022-08-17T12:38:40.944Z,32.77
2022-08-17T12:41:29.146Z,32.82
2022-08-17T12:44:02.634Z,32.91
2022-08-17T12:46:46.048Z,33.02
2022-08-17T12:49:31.217Z,33.26
2022-08-17T12:52:26.600Z,33.51
2022-08-17T12:55:02.239Z,33.69
2022-08-17T12:57:36.789Z,33.85
2022-08-17T13:00:17.760Z,33.85
2022-08-17T13:02:52.304Z,33.73
2022-08-17T13:05:28.622Z,33.73
2022-08-17T13:08:01.184Z,33.66
2022-08-17T13:10:36.254Z,33.83
2022-08-17T13:13:20.661Z,34.19
2022-08-17T13:15:57.107Z,34.36
2022-08-17T13:18:43.652Z,34.55
2022-08-17T13:21:27.208Z,34.63
2022-08-17T13:24:04.918Z,34.46
2022-08-17T13:26:40.904Z,34.29
2022-08-17T13:29:24.754Z,34.40
2022-08-17T13:32:13.498Z,34.53
2022-08-17T13:35:12.390Z,34.51
2022-08-17T13:37:41.019Z,34.72
2022-08-17T13:40:37.833Z,34.58
2022-08-17T13:43:10.087Z,34.66
2022-08-17T13:45:53.318Z,34.76
2022-08-17T13:48:32.043Z,34.84
2022-08-17T13:51:44.922Z,34.94
2022-08-17T13:54:31.213Z,34.77
2022-08-17T13:57:05.205Z,34.81
2022-08-17T13:59:53.553Z,35.01
2022-08-17T14:02:28.313Z,34.88
2022-08-17T14:05:00.506Z,34.96
2022-08-17T14:07:37.593Z,35.11
2022-08-17T14:10:15.416Z,35.48
2022-08-17T14:12:46.636Z,35.93
2022-08-17T14:15:22.233Z,36.21
2022-08-17T14:17:53.359Z,36.42
2022-08-17T14:20:24.528Z,36.44
2022-08-17T14:22:56.976Z,36.37
2022-08-17T14:25:30.064Z,36.46
2022-08-17T14:27:59.972Z,36.37
2022-08-17T14:30:31.844Z,36.37
2022-08-17T14:33:02.169Z,36.51
2022-08-17T14:35:31.917Z,36.82
2022-08-17T14:38:02.096Z,37.22
2022-08-17T14:40:33.364Z,37.28
2022-08-17T14:43:02.897Z,37.28
2022-08-17T14:45:33.927Z,37.08
2022-08-17T14:48:07.628Z,37.08
2022-08-17T14:50:41.237Z,37.17
2022-08-17T14:53:15.953Z,37.59
2022-08-17T14:55:46.852Z,37.96
2022-08-17T14:58:16.723Z,37.97
2022-08-17T15:00:50.913Z,37.87
2022-08-17T15:03:20.748Z,37.52
2022-08-17T15:05:50.389Z,36.94
2022-08-17T15:08:21.600Z,36.72
2022-08-17T15:10:52.550Z,36.55
2022-08-17T15:13:27.805Z,36.51
2022-08-17T15:16:00.310Z,36.52
2022-08-17T15:18:30.374Z,36.39
2022-08-17T15:21:00.349Z,36.09
2022-08-17T15:23:29.912Z,36.04
2022-08-17T15:25:59.927Z,36.06
2022-08-17T15:28:29.713Z,35.98
2022-08-17T15:31:00.598Z,35.71
2022-08-17T15:33:31.135Z,35.72
2022-08-17T15:36:06.865Z,35.68
2022-08-17T15:38:40.125Z,35.42
2022-08-17T15:41:15.102Z,35.10
2022-08-17T15:43:46.260Z,34.94
2022-08-17T15:46:20.942Z,34.65
2022-08-17T15:48:54.813Z,34.35
2022-08-17T15:51:27.755Z,33.89
2022-08-17T15:54:04.388Z,33.63
2022-08-17T15:56:47.114Z,33.35
2022-08-17T15:59:16.630Z,33.07
2022-08-17T16:03:13.251Z,32.87
2022-08-17T16:04:37.000Z,32.52
2022-08-17T16:07:10.453Z,32.24
2022-08-17T16:09:39.992Z,32.11
2022-08-17T16:12:13.669Z,31.98
2022-08-17T16:14:43.374Z,31.86
2022-08-17T16:17:39.098Z,31.67
2022-08-17T16:20:05.390Z,31.62
2022-08-17T16:22:38.941Z,31.49
2022-08-17T16:25:14.992Z,31.40
2022-08-17T16:27:45.806Z,31.32
2022-08-17T16:30:18.009Z,31.23
2022-08-17T16:32:52.912Z,31.13
2022-08-17T16:35:26.754Z,31.07
2022-08-17T16:37:59.371Z,31.04
2022-08-17T16:40:35.722Z,30.92
2022-08-17T16:43:10.433Z,30.84
2022-08-17T16:45:41.161Z,30.75
2022-08-17T16:48:12.020Z,30.62
2022-08-17T16:50:42.493Z,30.49
2022-08-17T16:53:32.365Z,30.39
2022-08-17T16:56:01.818Z,30.27
2022-08-17T16:58:31.406Z,30.15
2022-08-17T17:01:00.946Z,30.04
2022-08-17T17:03:33.138Z,29.92
2022-08-17T17:06:18.778Z,29.81
2022-08-17T17:08:58.354Z,29.72
2022-08-17T17:11:36.567Z,29.66
2022-08-17T17:14:11.935Z,29.60
2022-08-17T17:16:52.481Z,29.56
2022-08-17T17:19:35.335Z,29.39
2022-08-17T17:22:16.279Z,29.24
2022-08-17T17:24:59.549Z,29.06
2022-08-17T17:27:43.979Z,28.83
2022-08-17T17:30:20.715Z,28.62
2022-08-17T17:32:57.084Z,28.40
2022-08-17T17:35:35.917Z,28.17
2022-08-17T17:38:17.548Z,27.99
2022-08-17T17:40:51.854Z,27.75
2022-08-17T17:43:41.777Z,27.51
2022-08-17T17:46:26.777Z,27.29
2022-08-17T17:48:57.926Z,27.08
2022-08-17T17:52:09.111Z,26.87
2022-08-17T17:55:01.429Z,26.58
2022-08-17T17:57:50.978Z,26.37
2022-08-17T18:00:26.046Z,26.20
2022-08-17T18:03:26.285Z,26.03
2022-08-17T18:06:23.200Z,25.89
2022-08-17T18:09:12.082Z,25.75
2022-08-17T18:12:23.401Z,25.59
2022-08-17T18:15:29.604Z,25.41
2022-08-17T18:18:38.687Z,25.24
2022-08-17T18:21:19.221Z,25.04
2022-08-17T18:23:56.976Z,24.88
2022-08-17T18:26:46.858Z,24.68
2022-08-17T18:29:44.118Z,24.49
2022-08-17T18:32:38.076Z,24.34
2022-08-17T18:35:35.028Z,24.17
2022-08-17T18:38:29.505Z,24.07
2022-08-17T18:41:23.693Z,23.96
2022-08-17T18:44:17.778Z,23.84
2022-08-17T18:46:47.312Z,23.77
2022-08-17T18:49:30.004Z,23.70
2022-08-17T18:52:15.478Z,23.63
2022-08-17T18:55:09.120Z,23.54
2022-08-17T18:57:45.243Z,23.47
2022-08-17T19:00:36.870Z,23.42
2022-08-17T19:03:25.657Z,23.37
2022-08-17T19:06:17.617Z,23.33
2022-08-17T19:08:47.191Z,23.32
2022-08-17T19:11:28.654Z,23.30
2022-08-17T19:14:08.441Z,23.26
2022-08-17T19:16:50.111Z,23.21
2022-08-17T19:19:29.729Z,23.11
2022-08-17T19:22:10.995Z,23.03
2022-08-17T19:24:47.475Z,22.93
2022-08-17T19:27:24.045Z,22.82
2022-08-17T19:30:08.366Z,22.74
2022-08-17T19:32:38.629Z,22.67
2022-08-17T19:35:17.182Z,22.61
2022-08-17T19:38:04.781Z,22.57
2022-08-17T19:41:04.055Z,22.53
2022-08-17T19:44:27.085Z,22.58
2022-08-17T19:47:19.593Z,22.62
2022-08-17T19:50:11.592Z,22.59
2022-08-17T19:52:50.550Z,22.54
2022-08-17T19:55:31.665Z,22.51
2022-08-17T19:58:11.268Z,22.46
2022-08-17T20:00:52.723Z,22.43
2022-08-17T20:03:31.349Z,22.39
2022-08-17T20:06:13.767Z,22.38
2022-08-17T20:08:58.874Z,22.37
2022-08-17T20:11:38.988Z,22.32
2022-08-17T20:14:16.051Z,22.31
2022-08-17T20:16:46.426Z,22.31
2022-08-17T20:19:29.229Z,22.29
2022-08-17T20:22:10.861Z,22.26
2022-08-17T20:24:48.584Z,22.27
2022-08-17T20:27:31.320Z,22.29
2022-08-17T20:30:10.383Z,22.25
2022-08-17T20:32:55.392Z,22.24
2022-08-17T20:35:30.949Z,22.21
2022-08-17T20:38:05.142Z,22.20
2022-08-17T20:40:39.662Z,22.16
2022-08-17T20:44:02.569Z,22.11
2022-08-17T20:46:56.892Z,22.06
2022-08-17T20:49:52.506Z,22.03
2022-08-17T20:52:53.686Z,21.94
2022-08-17T20:55:55.780Z,21.90
2022-08-17T20:58:47.766Z,21.85
2022-08-17T21:01:36.630Z,21.84
2022-08-17T21:04:43.771Z,21.83
2022-08-17T21:07:30.007Z,21.80
2022-08-17T21:10:19.415Z,21.77
2022-08-17T21:12:55.793Z,21.73
2022-08-17T21:15:36.965Z,21.70
2022-08-17T21:18:15.885Z,21.69
2022-08-17T21:21:07.058Z,21.69
2022-08-17T21:24:09.910Z,21.66
2022-08-17T21:26:55.507Z,21.59
2022-08-17T21:29:31.805Z,21.58
2022-08-17T21:32:23.778Z,21.53
2022-08-17T21:35:29.965Z,21.48
2022-08-17T21:38:05.005Z,21.46
2022-08-17T21:40:36.241Z,21.47
2022-08-17T21:43:29.245Z,21.46
2022-08-17T21:46:09.294Z,21.53
2022-08-17T21:48:48.359Z,21.63
2022-08-17T21:51:25.206Z,21.81
2022-08-17T21:53:58.285Z,22.08
2022-08-17T21:56:32.942Z,22.14
2022-08-17T21:59:08.943Z,22.14
2022-08-17T22:01:42.918Z,22.12
2022-08-17T22:04:25.685Z,22.04
2022-08-17T22:06:57.221Z,21.91
2022-08-17T22:09:32.027Z,21.66
2022-08-17T22:12:09.099Z,21.25
2022-08-17T22:14:52.821Z,20.86
2022-08-17T22:17:27.340Z,20.68
2022-08-17T22:20:02.346Z,20.43
2022-08-17T22:22:59.777Z,20.27
2022-08-17T22:25:31.002Z,20.09
2022-08-17T22:28:03.834Z,19.95
2022-08-17T22:30:39.320Z,19.84
2022-08-17T22:33:40.627Z,19.70
2022-08-17T22:36:30.939Z,19.64
2022-08-17T22:39:03.536Z,19.46
2022-08-17T22:41:43.139Z,19.35
2022-08-17T22:44:24.308Z,19.17
2022-08-17T22:47:04.428Z,19.06
2022-08-17T22:49:53.881Z,18.98
2022-08-17T22:52:58.270Z,18.84
2022-08-17T22:55:49.460Z,18.69
2022-08-17T22:58:42.602Z,18.59
2022-08-17T23:01:28.151Z,18.45
2022-08-17T23:04:03.972Z,18.40
2022-08-17T23:06:38.317Z,18.25
2022-08-17T23:09:09.258Z,18.15
2022-08-17T23:11:49.102Z,18.15
2022-08-17T23:14:22.798Z,18.14
2022-08-17T23:16:52.542Z,18.10
2022-08-17T23:19:23.378Z,18.10
2022-08-17T23:21:54.147Z,18.03
2022-08-17T23:24:30.485Z,17.91
2022-08-17T23:27:00.137Z,17.93
2022-08-17T23:29:30.265Z,17.90
2022-08-17T23:32:01.363Z,17.84
2022-08-17T23:34:32.478Z,17.84
2022-08-17T23:37:02.215Z,17.86
2022-08-17T23:39:32.428Z,17.89
2022-08-17T23:42:07.833Z,17.88
2022-08-17T23:44:39.860Z,17.90
2022-08-17T23:47:09.706Z,17.89
2022-08-17T23:49:41.306Z,17.88
2022-08-17T23:52:15.008Z,17.84
2022-08-17T23:54:48.385Z,17.79
2022-08-17T23:57:33.892Z,17.81
